Time;durP1;ratioP1;P1;durP2;ratioP2;P2;SDS_P1;SDS_P2;PMS_P1;PMS_P2;Temp;Humidity;BMP_temperature;BMP_pressure;BME280_temperature;BME280_humidity;BME280_pressure;Samples;Min_cycle;Max_cycle;Signal;HPM_P1;HPM_P2
2022/12/12 00:07:31;;;;;;;22.17;7.73;;;;;;;16.19;58.41;99101.94;31327729;28;20072;-74
2022/12/12 00:22:33;;;;;;;18.97;7.07;;;;;;;16.03;58.50;99093.06;31309570;28;20053;-74
2022/12/12 00:37:35;;;;;;;17.10;8.33;;;;;;;15.78;58.77;99058.16;31360766;28;20053;-75
2022/12/12 00:52:37;;;;;;;17.43;6.70;;;;;;;15.62;58.12;99042.25;31356134;28;20118;-74
2022/12/12 01:07:39;;;;;;;15.37;7.97;;;;;;;15.66;59.33;99048.28;31342437;28;20103;-74
2022/12/12 01:22:41;;;;;;;16.23;7.77;;;;;;;15.73;58.94;99077.22;31340640;28;20106;-73
2022/12/12 01:37:43;;;;;;;13.40;6.20;;;;;;;15.61;58.36;99070.84;31314454;28;20146;-74
2022/12/12 01:52:48;;;;;;;17.17;7.17;;;;;;;15.51;57.68;99053.03;31338860;28;20406;-73
2022/12/12 02:07:50;;;;;;;18.33;7.63;;;;;;;15.77;56.42;99059.38;31342725;28;20076;-74
2022/12/12 02:23:07;;;;;;;13.70;7.13;;;;;;;15.89;57.10;99044.59;31338485;28;20051;-74
2022/12/12 02:38:27;;;;;;;16.43;7.27;;;;;;;15.81;56.76;99114.66;31327427;28;20524;-74
2022/12/12 02:53:30;;;;;;;19.33;6.70;;;;;;;15.58;58.32;99074.56;31338547;28;20041;-74
2022/12/12 03:08:56;;;;;;;14.47;5.83;;;;;;;15.53;58.76;99088.88;31325725;28;20107;-73
2022/12/12 03:24:04;;;;;;;17.07;6.90;;;;;;;15.01;58.84;99074.94;31337228;28;20060;-74
2022/12/12 03:39:23;;;;;;;16.40;8.03;;;;;;;15.11;59.97;99064.66;31328052;28;20110;-75
2022/12/12 03:54:59;;;;;;;10.60;6.53;;;;;;;14.73;59.71;99068.25;31334322;28;20080;-74
2022/12/12 04:41:11;;;;;;;23.70;8.70;;;;;;;14.67;59.95;99049.03;31332159;28;20080;-73
2022/12/12 04:56:17;;;;;;;18.03;7.87;;;;;;;14.85;60.25;99059.03;31340908;28;20524;-74
2022/12/12 05:11:21;;;;;;;21.42;9.35;;;;;;;14.59;60.56;99059.59;31331125;28;20123;-73
2022/12/12 05:26:29;;;;;;;29.60;10.73;;;;;;;14.45;60.75;99054.84;31349090;28;20482;-74
2022/12/12 05:41:31;;;;;;;23.20;9.83;;;;;;;14.62;60.58;99036.06;31345990;28;20044;-75
2022/12/12 05:56:32;;;;;;;26.50;10.67;;;;;;;15.02;59.30;99025.25;31351628;28;20055;-74
2022/12/12 06:11:34;;;;;;;30.23;11.40;;;;;;;15.19;58.20;99011.84;31351131;28;20076;-73
2022/12/12 06:26:36;;;;;;;31.53;11.00;;;;;;;15.30;58.89;99046.78;31318543;28;20068;-75
2022/12/12 06:41:38;;;;;;;31.33;9.77;;;;;;;15.25;58.11;99127.50;31356252;28;20768;-76
2022/12/12 06:56:41;;;;;;;29.30;11.33;;;;;;;14.89;59.66;99081.41;31308900;28;20079;-74
2022/12/12 07:11:49;;;;;;;27.33;10.00;;;;;;;14.57;58.88;99094.06;31318468;28;20060;-76
2022/12/12 07:26:50;;;;;;;23.80;11.40;;;;;;;14.49;59.56;99118.22;31355681;28;20505;-75
2022/12/12 07:41:52;;;;;;;25.73;10.73;;;;;;;14.58;58.98;99074.47;31337111;28;20494;-78
2022/12/12 07:56:54;;;;;;;20.17;8.37;;;;;;;14.60;58.25;99104.78;31393652;28;20048;-73
2022/12/12 08:11:58;;;;;;;29.77;12.97;;;;;;;14.55;59.72;99132.75;31350022;28;20037;-81
2022/12/12 08:27:03;;;;;;;29.53;13.80;;;;;;;14.47;60.29;99101.56;31356028;28;20053;-88
2022/12/12 08:42:05;;;;;;;25.10;10.63;;;;;;;14.24;59.77;99075.78;31380397;28;20052;-85
2022/12/12 08:57:07;;;;;;;26.97;10.27;;;;;;;14.14;61.27;99095.44;31381973;28;20056;-76
2022/12/12 09:12:09;;;;;;;31.37;10.53;;;;;;;14.14;61.20;99049.06;31368691;28;20048;-78
2022/12/12 09:27:11;;;;;;;29.47;10.13;;;;;;;14.13;62.02;99055.75;31332046;28;20140;-75
2022/12/12 09:42:27;;;;;;;35.47;10.93;;;;;;;14.19;62.22;99042.94;31342820;28;20506;-75
2022/12/12 09:57:41;;;;;;;34.23;11.77;;;;;;;14.28;62.15;99021.03;31340082;28;20052;-75
2022/12/12 10:12:44;;;;;;;25.07;8.77;;;;;;;14.22;62.20;99011.97;31311480;28;20052;-75
2022/12/12 10:27:49;;;;;;;23.93;9.77;;;;;;;14.23;62.64;99005.28;31318563;28;20252;-76
2022/12/12 10:43:02;;;;;;;16.47;7.53;;;;;;;14.68;61.34;98985.72;31342869;28;20037;-77
2022/12/12 10:58:05;;;;;;;22.93;8.00;;;;;;;14.56;61.25;98972.38;31340351;28;20103;-77
2022/12/12 11:13:14;;;;;;;30.90;8.23;;;;;;;14.82;61.44;98961.63;31331806;28;20057;-80
2022/12/12 11:28:22;;;;;;;20.43;8.37;;;;;;;14.72;61.50;98973.88;31359424;28;20061;-83
2022/12/12 11:43:27;;;;;;;31.40;8.40;;;;;;;14.67;61.78;98962.38;31331709;28;20087;-79
2022/12/12 11:58:44;;;;;;;21.97;8.53;;;;;;;14.70;61.75;98965.38;31337677;28;20122;-74
2022/12/12 12:14:04;;;;;;;12.00;5.33;;;;;;;14.88;61.63;98970.66;31324961;28;20091;-76
2022/12/12 12:29:29;;;;;;;18.83;7.07;;;;;;;14.81;61.67;98958.13;31341944;28;20049;-75
2022/12/12 12:44:58;;;;;;;13.53;5.30;;;;;;;14.71;62.10;98972.34;31361848;28;20041;-76
2022/12/12 13:00:24;;;;;;;18.07;6.33;;;;;;;14.95;60.80;98984.66;31378627;28;20082;-75
2022/12/12 13:15:45;;;;;;;17.97;7.13;;;;;;;14.81;60.81;99003.81;31347295;28;20057;-84
2022/12/12 13:30:47;;;;;;;20.07;7.33;;;;;;;14.74;60.21;99020.59;31346497;28;20526;-80
2022/12/12 13:45:57;;;;;;;30.97;8.67;;;;;;;14.65;60.52;99024.91;31328395;28;20049;-75
2022/12/12 14:01:47;;;;;;;18.20;7.07;;;;;;;14.86;60.52;99035.94;31401086;28;20541;-85
2022/12/12 14:16:54;;;;;;;16.53;5.80;;;;;;;14.88;60.06;99036.22;31310818;28;20429;-75
2022/12/12 14:32:07;;;;;;;26.57;7.73;;;;;;;14.73;60.63;99057.31;31398037;28;20071;-85
2022/12/12 14:47:15;;;;;;;28.43;6.67;;;;;;;14.77;60.82;99079.75;31349002;28;20072;-85
2022/12/12 15:02:33;;;;;;;25.03;7.13;;;;;;;15.13;59.99;99084.78;31367211;28;20055;-78
2022/12/12 15:17:44;;;;;;;17.97;6.83;;;;;;;15.01;60.58;99099.53;31350522;28;20092;-76
2022/12/12 15:32:47;;;;;;;23.27;5.27;;;;;;;14.89;59.90;99100.56;31341868;28;20045;-76
2022/12/12 15:47:53;;;;;;;103.10;8.37;;;;;;;14.94;60.73;99121.75;31340390;28;21530;-74
2022/12/12 16:03:01;;;;;;;76.33;7.93;;;;;;;15.14;60.16;99135.50;31332012;28;20053;-80
2022/12/12 16:34:28;;;;;;;104.47;37.93;;;;;;;15.43;61.05;99133.97;31350980;28;20075;-76
2022/12/12 16:49:30;;;;;;;34.00;11.60;;;;;;;15.87;60.79;99145.56;31348936;28;20536;-81
2022/12/12 17:04:32;;;;;;;8.10;3.80;;;;;;;16.27;58.49;99138.63;31370767;28;20041;-77
2022/12/12 17:19:34;;;;;;;6.87;3.23;;;;;;;16.21;57.80;99152.25;31356595;28;20052;-77
2022/12/12 17:34:36;;;;;;;16.63;6.93;;;;;;;15.97;58.33;99179.81;31365092;28;20045;-79
2022/12/12 17:49:38;;;;;;;11.07;5.17;;;;;;;15.89;56.70;99197.84;31344221;28;20071;-79
2022/12/12 18:04:40;;;;;;;17.33;8.40;;;;;;;15.39;56.90;99209.97;31357450;28;20060;-77
2022/12/12 18:19:42;;;;;;;9.43;5.70;;;;;;;15.28;56.89;99235.91;31366069;28;20103;-76
2022/12/12 18:34:44;;;;;;;19.83;9.53;;;;;;;15.10;56.88;99243.53;31353615;28;20049;-76
2022/12/12 18:49:46;;;;;;;18.40;6.60;;;;;;;15.07;57.12;99280.00;31356446;28;20079;-78
2022/12/12 19:21:10;;;;;;;11.93;4.93;;;;;;;14.91;55.82;99289.38;31350472;28;20049;-74
2022/12/12 19:36:15;;;;;;;30.97;14.23;;;;;;;14.70;55.03;99326.72;31350254;28;20126;-77
2022/12/12 19:51:19;;;;;;;7.40;4.17;;;;;;;14.39;54.56;99335.22;31378110;28;20042;-78
2022/12/12 20:06:22;;;;;;;8.00;4.97;;;;;;;14.22;55.23;99342.25;31389557;28;20217;-81
2022/12/12 20:21:27;;;;;;;10.80;4.73;;;;;;;14.27;54.99;99366.19;31344619;28;20052;-78
2022/12/12 20:36:49;;;;;;;10.40;5.67;;;;;;;13.99;55.10;99385.38;31357603;28;20048;-79
2022/12/12 20:51:51;;;;;;;10.70;5.57;;;;;;;13.88;53.88;99401.47;31347649;28;20052;-76
2022/12/12 21:06:58;;;;;;;33.60;14.27;;;;;;;13.74;54.21;99415.72;31350519;28;20136;-75
2022/12/12 21:22:00;;;;;;;12.50;6.60;;;;;;;13.43;53.57;99426.06;31343562;28;20522;-76
2022/12/12 21:37:02;;;;;;;27.97;14.10;;;;;;;13.36;53.75;99442.69;31355245;28;20126;-77
2022/12/12 21:52:08;;;;;;;14.73;7.30;;;;;;;13.29;52.77;99481.91;31326507;28;20461;-78
2022/12/12 22:07:11;;;;;;;12.67;6.33;;;;;;;13.04;52.90;99504.66;31319192;28;20049;-77
2022/12/12 22:22:12;;;;;;;13.33;6.40;;;;;;;12.70;51.83;99502.13;31344806;28;20422;-75
2022/12/12 22:37:14;;;;;;;18.43;9.17;;;;;;;12.73;52.47;99501.97;31352652;28;20068;-77
2022/12/12 22:52:16;;;;;;;23.90;10.50;;;;;;;12.47;52.53;99525.91;31383535;28;20056;-76
2022/12/12 23:07:18;;;;;;;17.17;8.00;;;;;;;12.64;52.42;99519.03;31344260;28;20060;-76
2022/12/12 23:22:20;;;;;;;13.20;7.13;;;;;;;12.60;52.52;99521.13;31334279;28;20529;-75
2022/12/12 23:37:22;;;;;;;14.43;8.07;;;;;;;12.60;52.60;99521.13;31334507;28;20080;-75
2022/12/12 23:52:25;;;;;;;17.93;8.60;;;;;;;12.64;52.54;99524.47;31344719;28;20715;-75
